Aviation Digital Data Service (ADDS)

Output produced by METARs form (0253 UTC 19 April 2014)
found at http://aviationweather.gov/adds/metars/
 
KPBG 190248Z 1903/1924 VRB03KT P6SM OVC090 
     FM190400 21004KT P6SM VCSH OVC060 
     FM190700 32004KT P6SM OVC035 
     FM191400 34014G22KT P6SM SCT070